createdAt,value
2022-12-18T00:02:00.028Z,-4.13
2022-12-18T00:04:28.967Z,-4.25
2022-12-18T00:06:56.979Z,-4.24
2022-12-18T00:09:24.952Z,-4.25
2022-12-18T00:14:43.797Z,-4.13
2022-12-18T00:17:13.188Z,-4.52
2022-12-18T00:19:40.977Z,-4.57
2022-12-18T00:22:08.848Z,-4.48
2022-12-18T00:24:36.770Z,-4.57
2022-12-18T00:27:04.777Z,-4.50
2022-12-18T00:29:32.541Z,-4.66
2022-12-18T00:32:00.646Z,-4.71
2022-12-18T00:34:29.876Z,-4.59
2022-12-18T00:36:57.565Z,-4.42
2022-12-18T00:39:25.436Z,-4.41
2022-12-18T00:42:10.524Z,-4.37
2022-12-18T00:44:38.309Z,-4.58
2022-12-18T00:47:06.300Z,-4.44
2022-12-18T00:49:35.500Z,-4.50
2022-12-18T00:52:03.555Z,-4.59
2022-12-18T00:54:31.453Z,-4.50
2022-12-18T00:56:59.280Z,-4.45
2022-12-18T00:59:27.241Z,-4.89
2022-12-18T01:01:55.184Z,-4.71
2022-12-18T01:04:23.189Z,-4.77
2022-12-18T01:06:52.431Z,-4.92
2022-12-18T01:09:20.373Z,-5.12
2022-12-18T01:11:48.302Z,-5.07
2022-12-18T01:14:16.079Z,-4.89
2022-12-18T01:16:43.930Z,-4.80
2022-12-18T01:19:11.772Z,-4.81
2022-12-18T01:21:39.692Z,-4.71
2022-12-18T01:24:09.116Z,-4.97
2022-12-18T01:26:36.964Z,-5.03
2022-12-18T01:29:04.902Z,-5.05
2022-12-18T01:31:35.065Z,-5.18
2022-12-18T01:34:03.759Z,-4.98
2022-12-18T01:36:33.059Z,-4.80
2022-12-18T01:39:01.840Z,-5.15
2022-12-18T01:41:47.944Z,-5.07
2022-12-18T01:44:49.087Z,-4.88
2022-12-18T01:47:20.837Z,-5.05
2022-12-18T01:49:48.805Z,-4.92
2022-12-18T01:52:17.810Z,-5.18
2022-12-18T01:54:46.415Z,-5.03
2022-12-18T01:57:15.964Z,-4.97
2022-12-18T01:59:47.367Z,-5.00
2022-12-18T02:02:16.032Z,-4.81
2022-12-18T02:04:49.291Z,-5.00
2022-12-18T02:07:25.555Z,-4.89
2022-12-18T02:10:01.022Z,-4.92
2022-12-18T02:12:40.305Z,-5.19
2022-12-18T02:15:17.431Z,-5.12
2022-12-18T02:17:49.993Z,-5.02
2022-12-18T02:20:22.120Z,-5.12
2022-12-18T02:23:06.685Z,-5.33
2022-12-18T02:26:08.459Z,-5.04
2022-12-18T02:28:40.371Z,-4.91
2022-12-18T02:31:13.197Z,-4.94
2022-12-18T02:33:43.677Z,-4.80
2022-12-18T02:36:13.882Z,-4.83
2022-12-18T02:38:42.333Z,-4.93
2022-12-18T02:41:12.452Z,-5.02
2022-12-18T02:43:40.655Z,-4.95
2022-12-18T02:46:29.405Z,-5.23
2022-12-18T02:49:03.524Z,-4.96
2022-12-18T02:51:38.924Z,-4.94
2022-12-18T02:54:18.013Z,-4.92
2022-12-18T02:56:52.618Z,-4.83
2022-12-18T02:59:25.007Z,-4.96
2022-12-18T03:01:59.044Z,-5.09
2022-12-18T03:04:31.040Z,-5.02
2022-12-18T03:07:05.122Z,-5.03
2022-12-18T03:09:36.466Z,-5.02
2022-12-18T03:12:27.529Z,-5.03
2022-12-18T03:15:00.864Z,-4.88
2022-12-18T03:17:32.832Z,-4.76
2022-12-18T03:20:05.328Z,-4.97
2022-12-18T03:22:35.354Z,-5.01
2022-12-18T03:25:07.178Z,-5.39
2022-12-18T03:27:39.765Z,-5.38
2022-12-18T03:30:11.164Z,-5.26
2022-12-18T03:32:44.399Z,-5.29
2022-12-18T03:35:15.054Z,-5.36
2022-12-18T03:37:43.074Z,-5.24
2022-12-18T03:40:12.097Z,-5.17
2022-12-18T03:42:47.823Z,-5.12
2022-12-18T03:45:24.449Z,-5.11
2022-12-18T03:48:03.606Z,-5.02
2022-12-18T03:50:42.184Z,-5.14
2022-12-18T03:53:23.239Z,-5.07
2022-12-18T03:55:53.442Z,-5.21
2022-12-18T03:58:27.438Z,-5.20
2022-12-18T04:00:58.830Z,-5.06
2022-12-18T04:03:28.619Z,-5.22
2022-12-18T04:05:58.477Z,-5.08
2022-12-18T04:08:27.268Z,-5.05
2022-12-18T04:10:55.136Z,-5.09
2022-12-18T04:13:31.392Z,-4.99
2022-12-18T04:15:59.282Z,-4.96
2022-12-18T04:18:27.316Z,-5.09
2022-12-18T04:20:55.347Z,-5.21
2022-12-18T04:23:23.731Z,-5.26
2022-12-18T04:25:51.628Z,-5.20
2022-12-18T04:28:19.739Z,-5.17
2022-12-18T04:30:52.226Z,-5.10
2022-12-18T04:33:20.175Z,-5.13
2022-12-18T04:35:48.427Z,-5.22
2022-12-18T04:38:16.597Z,-5.13
2022-12-18T04:40:45.113Z,-5.57
2022-12-18T04:43:13.067Z,-5.35
2022-12-18T04:45:41.534Z,-5.31
2022-12-18T04:48:10.814Z,-5.14
2022-12-18T04:50:38.990Z,-5.21
2022-12-18T04:53:06.787Z,-5.21
2022-12-18T04:55:34.596Z,-5.12
2022-12-18T04:58:02.346Z,-5.34
2022-12-18T05:00:30.204Z,-5.29
2022-12-18T05:02:58.224Z,-5.23
2022-12-18T05:05:27.412Z,-5.23
2022-12-18T05:07:55.320Z,-5.33
2022-12-18T05:10:23.260Z,-5.25
2022-12-18T05:13:01.419Z,-5.38
2022-12-18T05:15:31.327Z,-5.38
2022-12-18T05:17:59.640Z,-5.31
2022-12-18T05:20:30.288Z,-5.21
2022-12-18T05:22:58.526Z,-5.24
2022-12-18T05:25:26.591Z,-5.24
2022-12-18T05:27:54.383Z,-5.22
2022-12-18T05:30:23.429Z,-5.08
2022-12-18T05:32:51.452Z,-5.09
2022-12-18T05:35:19.533Z,-5.42
2022-12-18T05:37:48.772Z,-5.46
2022-12-18T05:40:16.597Z,-5.25
2022-12-18T05:42:44.384Z,-5.40
2022-12-18T05:45:12.492Z,-5.37
2022-12-18T05:47:40.320Z,-5.38
2022-12-18T05:50:09.625Z,-5.38
2022-12-18T05:52:37.572Z,-5.14
2022-12-18T05:55:07.306Z,-5.21
2022-12-18T05:57:35.170Z,-5.14
2022-12-18T06:00:02.972Z,-5.04
2022-12-18T06:02:30.857Z,-5.17
2022-12-18T06:04:58.668Z,-5.14
2022-12-18T06:07:26.572Z,-5.28
2022-12-18T06:09:54.406Z,-5.14
2022-12-18T06:12:23.647Z,-5.10
2022-12-18T06:14:51.568Z,-5.17
2022-12-18T06:17:19.404Z,-5.07
2022-12-18T06:19:47.333Z,-5.23
2022-12-18T06:22:15.229Z,-5.12
2022-12-18T06:24:43.049Z,-4.91
2022-12-18T06:27:10.890Z,-5.12
2022-12-18T06:29:40.255Z,-5.12
2022-12-18T06:32:08.233Z,-5.23
2022-12-18T06:34:38.834Z,-5.03
2022-12-18T06:37:06.628Z,-5.04
2022-12-18T06:39:34.544Z,-5.13
2022-12-18T06:42:02.514Z,-4.96
2022-12-18T06:44:30.399Z,-5.13
2022-12-18T06:46:59.573Z,-5.24
2022-12-18T06:49:30.562Z,-5.12
2022-12-18T06:51:58.715Z,-5.34
2022-12-18T06:54:26.470Z,-5.57
2022-12-18T06:56:56.569Z,-5.51
2022-12-18T06:59:24.364Z,-5.40
2022-12-18T07:01:52.284Z,-5.57
2022-12-18T07:04:21.728Z,-5.64
2022-12-18T07:06:49.551Z,-5.40
2022-12-18T07:09:17.565Z,-5.29
2022-12-18T07:11:45.326Z,-5.22
2022-12-18T07:14:13.246Z,-5.19
2022-12-18T07:16:41.870Z,-5.09
2022-12-18T07:19:09.911Z,-5.31
2022-12-18T07:21:39.179Z,-5.16
2022-12-18T07:24:08.408Z,-5.12
2022-12-18T07:26:36.317Z,-5.01
2022-12-18T07:29:04.210Z,-5.19
2022-12-18T07:31:32.230Z,-5.11
2022-12-18T07:34:00.220Z,-5.04
2022-12-18T07:36:28.046Z,-5.18
2022-12-18T07:38:57.400Z,-5.08
2022-12-18T07:41:25.398Z,-5.02
2022-12-18T07:43:53.288Z,-5.02
2022-12-18T07:46:22.211Z,-5.17
2022-12-18T07:48:50.506Z,-5.09
2022-12-18T07:51:19.774Z,-5.02
2022-12-18T07:53:52.213Z,-5.23
2022-12-18T07:56:27.765Z,-4.95
2022-12-18T07:58:56.543Z,-5.38
2022-12-18T08:01:24.791Z,-5.13
2022-12-18T08:03:55.670Z,-5.30
2022-12-18T08:06:24.508Z,-5.13
2022-12-18T08:08:53.815Z,-5.15
2022-12-18T08:11:24.075Z,-5.18
2022-12-18T08:13:52.141Z,-5.12
2022-12-18T08:16:21.342Z,-5.42
2022-12-18T08:18:49.839Z,-5.66
2022-12-18T08:21:21.911Z,-5.38
2022-12-18T08:23:52.795Z,-5.45
2022-12-18T08:26:23.076Z,-5.32
2022-12-18T08:29:01.762Z,-5.04
2022-12-18T08:31:31.822Z,-4.85
2022-12-18T08:34:04.054Z,-4.94
2022-12-18T08:36:31.913Z,-5.28
2022-12-18T08:38:59.928Z,-5.05
2022-12-18T08:41:29.618Z,-4.89
2022-12-18T08:44:16.092Z,-4.79
2022-12-18T08:46:45.499Z,-4.57
2022-12-18T08:49:14.187Z,-4.63
2022-12-18T08:51:45.383Z,-4.59
2022-12-18T08:54:14.813Z,-4.70
2022-12-18T08:56:53.343Z,-4.65
2022-12-18T08:59:22.129Z,-4.59
2022-12-18T09:01:50.182Z,-4.51
2022-12-18T09:04:18.538Z,-4.49
2022-12-18T09:06:46.499Z,-4.37
2022-12-18T09:09:14.681Z,-4.33
2022-12-18T09:11:44.115Z,-4.29
2022-12-18T09:14:12.539Z,-4.52
2022-12-18T09:16:40.428Z,-4.24
2022-12-18T09:19:08.541Z,-4.15
2022-12-18T09:21:46.093Z,-4.14
2022-12-18T09:24:17.053Z,-4.18
2022-12-18T09:26:47.571Z,-4.15
2022-12-18T09:29:16.233Z,-4.08
2022-12-18T09:31:44.974Z,-3.94
2022-12-18T09:34:12.833Z,-3.93
2022-12-18T09:36:41.158Z,-3.92
2022-12-18T09:39:09.248Z,-4.02
2022-12-18T09:41:45.057Z,-3.85
2022-12-18T09:44:21.048Z,-3.85
2022-12-18T09:46:56.114Z,-3.67
2022-12-18T09:49:28.883Z,-3.69
2022-12-18T09:51:59.760Z,-3.90
2022-12-18T09:54:34.101Z,-3.86
2022-12-18T09:57:02.258Z,-3.76
2022-12-18T09:59:37.325Z,-3.78
2022-12-18T10:02:16.856Z,-3.77
2022-12-18T10:04:45.130Z,-3.91
2022-12-18T10:07:19.450Z,-3.74
2022-12-18T10:09:58.228Z,-3.54
2022-12-18T10:12:31.441Z,-3.50
2022-12-18T10:15:08.889Z,-3.49
2022-12-18T10:17:43.600Z,-3.48
2022-12-18T10:20:18.168Z,-3.53
2022-12-18T10:22:55.765Z,-3.36
2022-12-18T10:25:27.495Z,-3.44
2022-12-18T10:27:59.666Z,-3.44
2022-12-18T10:30:29.128Z,-3.27
2022-12-18T10:33:03.280Z,-3.26
2022-12-18T10:35:43.110Z,-3.26
2022-12-18T10:38:24.393Z,-3.28
2022-12-18T10:40:54.489Z,-3.25
2022-12-18T10:43:24.505Z,-3.38
2022-12-18T10:46:07.577Z,-3.69
2022-12-18T10:48:42.165Z,-3.62
2022-12-18T10:51:12.312Z,-3.29
2022-12-18T10:53:44.614Z,-3.03
2022-12-18T10:56:12.950Z,-2.97
2022-12-18T10:58:41.819Z,-3.06
2022-12-18T11:01:14.476Z,-3.01
2022-12-18T11:03:44.450Z,-3.05
2022-12-18T11:06:14.967Z,-3.06
2022-12-18T11:08:44.668Z,-2.88
2022-12-18T11:11:22.433Z,-2.96
2022-12-18T11:14:04.438Z,-3.01
2022-12-18T11:16:39.098Z,-3.12
2022-12-18T11:19:19.890Z,-3.30
2022-12-18T11:21:49.117Z,-3.29
2022-12-18T11:24:26.335Z,-3.11
2022-12-18T11:26:59.509Z,-3.13
2022-12-18T11:29:34.766Z,-3.11
2022-12-18T11:32:38.508Z,-3.22
2022-12-18T11:35:17.101Z,-3.21
2022-12-18T11:37:54.369Z,-3.37
2022-12-18T11:40:29.523Z,-3.28
2022-12-18T11:43:04.181Z,-3.38
2022-12-18T11:45:37.353Z,-3.29
2022-12-18T11:48:17.125Z,-3.25
2022-12-18T11:50:50.920Z,-3.08
2022-12-18T11:53:19.736Z,-3.23
2022-12-18T11:56:13.642Z,-3.13
2022-12-18T11:58:53.327Z,-3.02
2022-12-18T12:01:43.395Z,-2.98
2022-12-18T12:04:37.896Z,-2.98
2022-12-18T12:07:24.645Z,-3.00
2022-12-18T12:10:03.060Z,-2.99
2022-12-18T12:12:49.112Z,-2.95
2022-12-18T12:15:29.700Z,-2.96
2022-12-18T12:18:11.141Z,-2.94
2022-12-18T12:20:49.895Z,-3.35
2022-12-18T12:23:27.837Z,-3.08
2022-12-18T12:26:03.556Z,-2.97
2022-12-18T12:28:53.164Z,-2.87
2022-12-18T12:31:34.305Z,-2.75
2022-12-18T12:34:11.015Z,-2.85
2022-12-18T12:36:53.022Z,-2.70
2022-12-18T12:39:27.304Z,-2.78
2022-12-18T12:42:12.321Z,-2.83
2022-12-18T12:44:51.263Z,-2.90
2022-12-18T12:47:28.119Z,-2.99
2022-12-18T12:49:57.615Z,-2.79
2022-12-18T12:52:34.618Z,-2.65
2022-12-18T12:55:11.531Z,-2.65
2022-12-18T12:57:48.120Z,-3.01
2022-12-18T13:00:20.191Z,-2.90
2022-12-18T13:02:58.558Z,-2.95
2022-12-18T13:05:32.277Z,-3.47
2022-12-18T13:08:05.200Z,-3.12
2022-12-18T13:10:37.830Z,-3.00
2022-12-18T13:13:09.196Z,-3.10
2022-12-18T13:15:44.428Z,-3.18
2022-12-18T13:18:20.715Z,-3.14
2022-12-18T13:20:55.228Z,-3.04
2022-12-18T13:23:37.673Z,-2.88
2022-12-18T13:26:33.940Z,-2.90
2022-12-18T13:29:05.168Z,-2.92
2022-12-18T13:32:10.057Z,-3.03
2022-12-18T13:34:38.551Z,-2.92
2022-12-18T13:37:45.202Z,-3.15
2022-12-18T13:40:58.624Z,-3.04
2022-12-18T13:43:32.280Z,-3.31
2022-12-18T13:46:25.849Z,-3.55
2022-12-18T13:48:59.297Z,-3.44
2022-12-18T13:51:31.850Z,-3.58
2022-12-18T13:54:02.176Z,-3.37
2022-12-18T13:56:35.351Z,-3.35
2022-12-18T13:59:13.414Z,-3.25
2022-12-18T14:01:45.392Z,-3.13
2022-12-18T14:04:20.303Z,-3.12
2022-12-18T14:06:48.804Z,-2.96
2022-12-18T14:09:21.458Z,-3.12
2022-12-18T14:11:52.327Z,-3.26
2022-12-18T14:14:21.833Z,-3.39
2022-12-18T14:16:53.244Z,-3.25
2022-12-18T14:19:23.018Z,-3.30
2022-12-18T14:21:52.732Z,-3.37
2022-12-18T14:24:22.602Z,-3.23
2022-12-18T14:26:53.183Z,-3.17
2022-12-18T14:29:24.656Z,-3.21
2022-12-18T14:32:16.875Z,-3.18
2022-12-18T14:34:46.207Z,-3.31
2022-12-18T14:37:15.545Z,-3.26
2022-12-18T14:39:57.573Z,-3.33
2022-12-18T14:42:29.274Z,-3.24
2022-12-18T14:45:39.089Z,-3.60
2022-12-18T14:48:14.642Z,-3.62
2022-12-18T14:50:44.893Z,-3.64
2022-12-18T14:53:22.985Z,-3.42
2022-12-18T14:55:52.759Z,-3.38
2022-12-18T14:58:24.233Z,-3.38
2022-12-18T15:00:52.399Z,-3.34
2022-12-18T15:03:22.052Z,-3.32
2022-12-18T15:05:51.357Z,-3.22
2022-12-18T15:08:43.733Z,-3.35
2022-12-18T15:11:28.280Z,-3.18
2022-12-18T15:14:00.184Z,-3.19
2022-12-18T15:16:28.762Z,-3.17
2022-12-18T15:18:56.904Z,-3.44
2022-12-18T15:21:26.148Z,-3.30
2022-12-18T15:23:55.411Z,-3.30
2022-12-18T15:26:24.348Z,-3.46
2022-12-18T15:28:58.408Z,-3.52
2022-12-18T15:31:32.186Z,-3.62
2022-12-18T15:34:21.955Z,-3.50
2022-12-18T15:36:49.980Z,-3.44
2022-12-18T15:39:17.895Z,-3.57
2022-12-18T15:42:06.443Z,-3.51
2022-12-18T15:44:35.389Z,-3.28
2022-12-18T15:47:03.283Z,-3.19
2022-12-18T15:49:31.266Z,-3.12
2022-12-18T15:52:01.559Z,-3.12
2022-12-18T15:54:47.167Z,-3.42
2022-12-18T15:57:27.839Z,-3.49
2022-12-18T15:59:59.365Z,-3.44
2022-12-18T16:02:29.070Z,-3.35
2022-12-18T16:04:57.271Z,-3.61
2022-12-18T16:07:28.112Z,-3.79
2022-12-18T16:10:00.378Z,-3.82
2022-12-18T16:12:30.342Z,-3.83
2022-12-18T16:14:59.755Z,-3.77
2022-12-18T16:17:27.730Z,-3.71
2022-12-18T16:19:56.303Z,-3.79
2022-12-18T16:22:26.569Z,-3.60
2022-12-18T16:24:55.609Z,-3.45
2022-12-18T16:27:24.625Z,-3.71
2022-12-18T16:29:53.029Z,-3.60
2022-12-18T16:32:23.716Z,-3.68
2022-12-18T16:34:52.766Z,-3.77
2022-12-18T16:37:20.712Z,-3.69
2022-12-18T16:39:51.854Z,-3.64
2022-12-18T16:42:21.272Z,-3.80
2022-12-18T16:44:50.829Z,-3.69
2022-12-18T16:47:19.282Z,-3.71
2022-12-18T16:49:52.027Z,-3.63
2022-12-18T16:52:22.445Z,-3.64
2022-12-18T16:54:50.510Z,-3.82
2022-12-18T16:57:21.533Z,-3.79
2022-12-18T17:03:00.558Z,-3.87
2022-12-18T17:05:35.530Z,-3.90
2022-12-18T17:08:09.668Z,-3.90
2022-12-18T17:10:40.564Z,-4.04
2022-12-18T17:13:08.394Z,-3.98
2022-12-18T17:15:41.241Z,-4.23
2022-12-18T17:18:09.324Z,-4.26
2022-12-18T17:20:44.902Z,-4.32
2022-12-18T17:23:19.120Z,-4.21
2022-12-18T17:25:50.217Z,-4.26
2022-12-18T17:28:22.197Z,-4.24
2022-12-18T17:30:58.714Z,-4.27
2022-12-18T17:33:33.419Z,-4.20
2022-12-18T17:36:07.419Z,-4.17
2022-12-18T17:38:36.520Z,-4.09
2022-12-18T17:41:07.413Z,-4.09
2022-12-18T17:43:39.515Z,-4.14
2022-12-18T17:46:17.096Z,-4.19
2022-12-18T17:48:45.117Z,-4.14
2022-12-18T17:51:18.706Z,-4.36
2022-12-18T17:53:58.337Z,-4.18
2022-12-18T17:56:31.688Z,-4.19
2022-12-18T17:59:04.696Z,-4.14
2022-12-18T18:01:43.952Z,-4.19
2022-12-18T18:04:16.751Z,-4.12
2022-12-18T18:06:46.168Z,-4.18
2022-12-18T18:09:16.699Z,-4.24
2022-12-18T18:12:03.403Z,-4.15
2022-12-18T18:14:40.105Z,-4.47
2022-12-18T18:17:08.809Z,-4.38
2022-12-18T18:19:37.057Z,-4.45
2022-12-18T18:22:08.650Z,-4.54
2022-12-18T18:24:36.946Z,-4.45
2022-12-18T18:27:07.628Z,-4.38
2022-12-18T18:29:36.540Z,-4.41
2022-12-18T18:32:07.461Z,-4.39
2022-12-18T18:34:35.909Z,-4.37
2022-12-18T18:37:04.821Z,-4.37
2022-12-18T18:39:35.551Z,-4.27
2022-12-18T18:42:03.670Z,-4.32
2022-12-18T18:44:47.295Z,-4.44
2022-12-18T18:47:16.744Z,-4.58
2022-12-18T18:49:44.729Z,-4.70
2022-12-18T18:52:13.113Z,-4.53
2022-12-18T18:55:03.676Z,-4.55
2022-12-18T18:57:30.854Z,-4.60
2022-12-18T18:59:59.153Z,-4.64
2022-12-18T19:02:28.600Z,-4.65
2022-12-18T19:04:58.211Z,-4.69
2022-12-18T19:07:30.414Z,-4.66
2022-12-18T19:10:04.406Z,-4.54
2022-12-18T19:12:51.671Z,-4.60
2022-12-18T19:15:19.856Z,-4.53
2022-12-18T19:17:47.947Z,-4.49
2022-12-18T19:20:18.419Z,-4.55
2022-12-18T19:22:55.354Z,-4.62
2022-12-18T19:25:38.361Z,-4.49
2022-12-18T19:28:21.345Z,-4.69
2022-12-18T19:30:57.336Z,-4.61
2022-12-18T19:33:44.376Z,-4.67
2022-12-18T19:36:15.337Z,-4.55
2022-12-18T19:38:44.772Z,-4.73
2022-12-18T19:41:16.102Z,-4.78
2022-12-18T19:43:45.279Z,-4.68
2022-12-18T19:46:15.538Z,-4.71
2022-12-18T19:48:45.080Z,-4.81
2022-12-18T19:51:16.387Z,-4.84
2022-12-18T19:53:44.963Z,-4.94
2022-12-18T19:56:16.851Z,-4.90
2022-12-18T19:58:45.727Z,-4.99
2022-12-18T20:01:14.737Z,-4.82
2022-12-18T20:03:51.635Z,-4.90
2022-12-18T20:06:25.625Z,-4.73
2022-12-18T20:09:00.225Z,-4.75
2022-12-18T20:11:30.533Z,-4.69
2022-12-18T20:13:59.306Z,-4.71
2022-12-18T20:16:27.445Z,-4.92
2022-12-18T20:18:59.235Z,-4.96
2022-12-18T20:21:27.286Z,-4.87
2022-12-18T20:23:59.883Z,-4.73
2022-12-18T20:26:29.529Z,-4.71
2022-12-18T20:29:03.180Z,-4.73
2022-12-18T20:31:31.558Z,-4.72
2022-12-18T20:34:02.722Z,-4.66
2022-12-18T20:36:34.216Z,-4.64
2022-12-18T20:39:05.286Z,-4.71
2022-12-18T20:41:38.163Z,-4.77
2022-12-18T20:44:22.583Z,-4.57
2022-12-18T20:46:53.715Z,-4.55
2022-12-18T20:49:21.993Z,-4.72
2022-12-18T20:51:52.478Z,-4.80
2022-12-18T20:54:20.728Z,-4.76
2022-12-18T20:56:50.620Z,-4.94
2022-12-18T20:59:19.766Z,-4.72
2022-12-18T21:01:49.515Z,-4.96
2022-12-18T21:04:18.844Z,-4.79
2022-12-18T21:06:53.280Z,-4.76
2022-12-18T21:09:25.109Z,-4.80
2022-12-18T21:12:14.170Z,-4.83
2022-12-18T21:14:51.334Z,-4.81
2022-12-18T21:17:19.368Z,-4.79
2022-12-18T21:19:52.912Z,-4.74
2022-12-18T21:22:21.992Z,-4.71
2022-12-18T21:24:49.979Z,-4.59
2022-12-18T21:27:19.556Z,-4.59
2022-12-18T21:29:48.270Z,-4.61
2022-12-18T21:32:18.637Z,-4.60
2022-12-18T21:34:50.629Z,-4.64
2022-12-18T21:37:18.718Z,-4.62
2022-12-18T21:39:49.092Z,-4.57
2022-12-18T21:42:39.092Z,-4.79
2022-12-18T21:45:09.349Z,-4.82
2022-12-18T21:47:40.064Z,-4.77
2022-12-18T21:50:09.394Z,-4.76
2022-12-18T21:52:40.336Z,-4.64
2022-12-18T21:55:10.262Z,-4.67
2022-12-18T21:57:40.536Z,-4.76
2022-12-18T22:00:19.191Z,-4.71
2022-12-18T22:03:13.381Z,-4.87
2022-12-18T22:05:38.307Z,-4.71
2022-12-18T22:08:07.621Z,-4.60
2022-12-18T22:10:36.398Z,-4.60
2022-12-18T22:13:07.685Z,-4.70
2022-12-18T22:15:36.009Z,-4.67
2022-12-18T22:18:03.991Z,-4.54
2022-12-18T22:20:31.934Z,-4.55
2022-12-18T22:23:05.760Z,-4.50
2022-12-18T22:25:35.251Z,-4.37
2022-12-18T22:28:24.991Z,-4.33
2022-12-18T22:30:58.994Z,-4.34
2022-12-18T22:33:28.010Z,-4.31
2022-12-18T22:35:56.078Z,-4.20
2022-12-18T22:38:24.318Z,-4.41
2022-12-18T22:40:52.213Z,-4.40
2022-12-18T22:43:21.841Z,-4.41
2022-12-18T22:45:49.624Z,-4.32
2022-12-18T22:48:18.092Z,-4.63
2022-12-18T22:50:47.033Z,-4.54
2022-12-18T22:53:15.108Z,-4.53
2022-12-18T22:55:42.991Z,-4.58
2022-12-18T22:58:10.841Z,-4.49
2022-12-18T23:00:41.355Z,-4.61
2022-12-18T23:03:10.792Z,-4.71
2022-12-18T23:05:38.726Z,-4.52
2022-12-18T23:08:06.745Z,-4.55
2022-12-18T23:10:38.290Z,-4.44
2022-12-18T23:13:06.380Z,-4.57
2022-12-18T23:15:34.427Z,-4.53
2022-12-18T23:18:03.691Z,-4.57
2022-12-18T23:20:31.483Z,-4.52
2022-12-18T23:22:59.389Z,-4.47
2022-12-18T23:25:27.376Z,-4.53
2022-12-18T23:27:55.363Z,-4.48
2022-12-18T23:30:23.550Z,-4.54
2022-12-18T23:32:51.510Z,-4.62
2022-12-18T23:35:20.910Z,-4.73
2022-12-18T23:37:58.635Z,-4.63
2022-12-18T23:40:34.461Z,-4.73
2022-12-18T23:43:02.458Z,-4.58
2022-12-18T23:45:30.333Z,-4.67
2022-12-18T23:47:58.105Z,-4.73
2022-12-18T23:50:29.714Z,-4.72
2022-12-18T23:53:04.778Z,-4.63
2022-12-18T23:55:38.547Z,-4.51
2022-12-18T23:58:06.738Z,-4.47
